sensor_id;sensor_type;location;lat;lon;timestamp;temperature;humidity
21035;DHT22;10676;50.848;3.272;2022-09-13T00:00:41;19.60;99.90
21035;DHT22;10676;50.848;3.272;2022-09-13T00:03:08;19.50;99.90
21035;DHT22;10676;50.848;3.272;2022-09-13T00:05:35;19.60;99.90
21035;DHT22;10676;50.848;3.272;2022-09-13T00:08:01;19.60;99.90
21035;DHT22;10676;50.848;3.272;2022-09-13T00:10:26;19.60;99.90
21035;DHT22;10676;50.848;3.272;2022-09-13T00:12:53;19.60;99.90
21035;DHT22;10676;50.848;3.272;2022-09-13T00:15:19;19.60;99.90
21035;DHT22;10676;50.848;3.272;2022-09-13T00:17:44;19.70;99.90
21035;DHT22;10676;50.848;3.272;2022-09-13T00:20:10;19.70;99.90
21035;DHT22;10676;50.848;3.272;2022-09-13T00:22:36;19.70;99.90
21035;DHT22;10676;50.848;3.272;2022-09-13T00:25:03;19.80;99.90
21035;DHT22;10676;50.848;3.272;2022-09-13T00:27:31;19.80;99.90
21035;DHT22;10676;50.848;3.272;2022-09-13T00:29:57;19.90;99.90
21035;DHT22;10676;50.848;3.272;2022-09-13T00:32:22;19.90;99.90
21035;DHT22;10676;50.848;3.272;2022-09-13T00:34:48;19.90;99.90
21035;DHT22;10676;50.848;3.272;2022-09-13T00:37:14;19.90;99.90
21035;DHT22;10676;50.848;3.272;2022-09-13T00:39:39;19.90;99.90
21035;DHT22;10676;50.848;3.272;2022-09-13T00:42:07;19.90;99.90
21035;DHT22;10676;50.848;3.272;2022-09-13T00:52:42;19.80;99.90
21035;DHT22;10676;50.848;3.272;2022-09-13T00:55:30;19.80;99.90
21035;DHT22;10676;50.848;3.272;2022-09-13T00:58:01;19.80;99.90
21035;DHT22;10676;50.848;3.272;2022-09-13T01:00:29;19.80;99.90
21035;DHT22;10676;50.848;3.272;2022-09-13T01:02:58;19.70;99.90
21035;DHT22;10676;50.848;3.272;2022-09-13T01:05:28;19.70;99.90
21035;DHT22;10676;50.848;3.272;2022-09-13T01:07:55;19.70;99.90
21035;DHT22;10676;50.848;3.272;2022-09-13T01:10:21;19.60;99.90
21035;DHT22;10676;50.848;3.272;2022-09-13T01:13:05;19.50;99.90
21035;DHT22;10676;50.848;3.272;2022-09-13T01:15:39;19.50;99.90
21035;DHT22;10676;50.848;3.272;2022-09-13T01:18:06;19.40;99.90
21035;DHT22;10676;50.848;3.272;2022-09-13T01:21:28;19.40;99.90
21035;DHT22;10676;50.848;3.272;2022-09-13T01:24:01;19.30;99.90
21035;DHT22;10676;50.848;3.272;2022-09-13T01:26:50;19.30;99.90
21035;DHT22;10676;50.848;3.272;2022-09-13T01:32:26;19.20;99.90
21035;DHT22;10676;50.848;3.272;2022-09-13T01:43:38;19.20;99.90
21035;DHT22;10676;50.848;3.272;2022-09-13T01:46:15;19.20;99.90
21035;DHT22;10676;50.848;3.272;2022-09-13T01:51:43;19.10;99.90
21035;DHT22;10676;50.848;3.272;2022-09-13T01:57:08;19.10;99.90
21035;DHT22;10676;50.848;3.272;2022-09-13T01:59:46;19.10;99.90
21035;DHT22;10676;50.848;3.272;2022-09-13T02:02:25;19.10;99.90
21035;DHT22;10676;50.848;3.272;2022-09-13T02:04:57;19.10;99.90
21035;DHT22;10676;50.848;3.272;2022-09-13T02:07:30;19.10;99.90
21035;DHT22;10676;50.848;3.272;2022-09-13T02:10:03;19.10;99.90
21035;DHT22;10676;50.848;3.272;2022-09-13T02:12:31;19.10;99.90
21035;DHT22;10676;50.848;3.272;2022-09-13T02:15:14;19.10;99.90
21035;DHT22;10676;50.848;3.272;2022-09-13T02:17:44;19.20;99.90
21035;DHT22;10676;50.848;3.272;2022-09-13T02:22:50;19.20;99.90
21035;DHT22;10676;50.848;3.272;2022-09-13T02:25:19;19.20;99.90
21035;DHT22;10676;50.848;3.272;2022-09-13T02:27:49;19.30;99.90
21035;DHT22;10676;50.848;3.272;2022-09-13T02:30:16;19.30;99.90
21035;DHT22;10676;50.848;3.272;2022-09-13T02:32:55;19.30;99.90
21035;DHT22;10676;50.848;3.272;2022-09-13T02:35:32;19.30;99.90
21035;DHT22;10676;50.848;3.272;2022-09-13T02:38:26;19.30;99.90
21035;DHT22;10676;50.848;3.272;2022-09-13T02:41:20;19.30;99.90
21035;DHT22;10676;50.848;3.272;2022-09-13T02:43:55;19.30;99.90
21035;DHT22;10676;50.848;3.272;2022-09-13T02:49:12;19.30;99.90
21035;DHT22;10676;50.848;3.272;2022-09-13T02:57:19;19.20;99.90
21035;DHT22;10676;50.848;3.272;2022-09-13T02:59:47;19.30;99.90
21035;DHT22;10676;50.848;3.272;2022-09-13T03:02:16;19.20;99.90
21035;DHT22;10676;50.848;3.272;2022-09-13T03:04:43;19.20;99.90
21035;DHT22;10676;50.848;3.272;2022-09-13T03:07:10;19.20;99.90
21035;DHT22;10676;50.848;3.272;2022-09-13T03:09:49;19.20;99.90
21035;DHT22;10676;50.848;3.272;2022-09-13T03:15:24;19.10;99.90
21035;DHT22;10676;50.848;3.272;2022-09-13T03:21:07;19.20;99.90
21035;DHT22;10676;50.848;3.272;2022-09-13T03:31:48;19.10;99.90
21035;DHT22;10676;50.848;3.272;2022-09-13T03:34:37;19.00;99.90
21035;DHT22;10676;50.848;3.272;2022-09-13T03:37:26;19.00;99.90
21035;DHT22;10676;50.848;3.272;2022-09-13T03:40:24;19.00;99.90
21035;DHT22;10676;50.848;3.272;2022-09-13T03:42:54;19.00;99.90
21035;DHT22;10676;50.848;3.272;2022-09-13T03:45:27;19.00;99.90
21035;DHT22;10676;50.848;3.272;2022-09-13T03:47:55;19.00;99.90
21035;DHT22;10676;50.848;3.272;2022-09-13T03:50:22;19.00;99.90
21035;DHT22;10676;50.848;3.272;2022-09-13T03:53:04;19.00;99.90
21035;DHT22;10676;50.848;3.272;2022-09-13T03:55:32;19.00;99.90
21035;DHT22;10676;50.848;3.272;2022-09-13T03:57:58;19.00;99.90
21035;DHT22;10676;50.848;3.272;2022-09-13T04:00:24;19.00;99.90
21035;DHT22;10676;50.848;3.272;2022-09-13T04:02:49;19.00;99.90
21035;DHT22;10676;50.848;3.272;2022-09-13T04:05:15;19.00;99.90
21035;DHT22;10676;50.848;3.272;2022-09-13T04:07:41;19.00;99.90
21035;DHT22;10676;50.848;3.272;2022-09-13T04:10:07;19.00;99.90
21035;DHT22;10676;50.848;3.272;2022-09-13T04:12:33;19.00;99.90
21035;DHT22;10676;50.848;3.272;2022-09-13T04:14:59;19.10;99.90
21035;DHT22;10676;50.848;3.272;2022-09-13T04:17:25;19.10;99.90
21035;DHT22;10676;50.848;3.272;2022-09-13T04:19:50;19.10;99.90
21035;DHT22;10676;50.848;3.272;2022-09-13T04:22:16;19.10;99.90
21035;DHT22;10676;50.848;3.272;2022-09-13T04:24:42;19.20;99.90
21035;DHT22;10676;50.848;3.272;2022-09-13T04:27:08;19.20;99.90
21035;DHT22;10676;50.848;3.272;2022-09-13T04:29:34;19.10;99.90
21035;DHT22;10676;50.848;3.272;2022-09-13T04:32:00;19.20;99.90
21035;DHT22;10676;50.848;3.272;2022-09-13T04:34:25;19.20;99.90
21035;DHT22;10676;50.848;3.272;2022-09-13T04:36:52;19.20;99.90
21035;DHT22;10676;50.848;3.272;2022-09-13T04:39:19;19.20;99.90
21035;DHT22;10676;50.848;3.272;2022-09-13T04:41:45;19.20;99.90
21035;DHT22;10676;50.848;3.272;2022-09-13T04:44:14;19.10;99.90
21035;DHT22;10676;50.848;3.272;2022-09-13T04:46:40;19.20;99.90
21035;DHT22;10676;50.848;3.272;2022-09-13T04:49:06;19.10;99.90
21035;DHT22;10676;50.848;3.272;2022-09-13T04:51:32;19.10;99.90
21035;DHT22;10676;50.848;3.272;2022-09-13T04:53:58;19.00;99.90
21035;DHT22;10676;50.848;3.272;2022-09-13T04:56:25;19.00;99.90
21035;DHT22;10676;50.848;3.272;2022-09-13T04:58:51;19.00;99.90
21035;DHT22;10676;50.848;3.272;2022-09-13T05:01:17;18.90;99.90
21035;DHT22;10676;50.848;3.272;2022-09-13T05:03:43;18.90;99.90
21035;DHT22;10676;50.848;3.272;2022-09-13T05:06:13;18.90;99.90
21035;DHT22;10676;50.848;3.272;2022-09-13T05:08:42;18.80;99.90
21035;DHT22;10676;50.848;3.272;2022-09-13T05:11:08;18.80;99.90
21035;DHT22;10676;50.848;3.272;2022-09-13T05:13:34;18.80;99.90
21035;DHT22;10676;50.848;3.272;2022-09-13T05:16:05;18.80;99.90
21035;DHT22;10676;50.848;3.272;2022-09-13T05:18:32;18.70;99.90
21035;DHT22;10676;50.848;3.272;2022-09-13T05:20:59;18.70;99.90
21035;DHT22;10676;50.848;3.272;2022-09-13T05:23:26;18.70;99.90
21035;DHT22;10676;50.848;3.272;2022-09-13T05:25:54;18.70;99.90
21035;DHT22;10676;50.848;3.272;2022-09-13T05:28:20;18.70;99.90
21035;DHT22;10676;50.848;3.272;2022-09-13T05:31:06;18.60;99.90
21035;DHT22;10676;50.848;3.272;2022-09-13T05:33:35;18.60;99.90
21035;DHT22;10676;50.848;3.272;2022-09-13T05:36:01;18.60;99.90
21035;DHT22;10676;50.848;3.272;2022-09-13T05:38:27;18.60;99.90
21035;DHT22;10676;50.848;3.272;2022-09-13T05:40:54;18.60;99.90
21035;DHT22;10676;50.848;3.272;2022-09-13T05:43:25;18.60;99.90
21035;DHT22;10676;50.848;3.272;2022-09-13T05:46:10;18.60;99.90
21035;DHT22;10676;50.848;3.272;2022-09-13T05:48:36;18.70;99.90
21035;DHT22;10676;50.848;3.272;2022-09-13T05:51:10;18.70;99.90
21035;DHT22;10676;50.848;3.272;2022-09-13T05:53:37;18.80;99.90
21035;DHT22;10676;50.848;3.272;2022-09-13T05:56:15;18.80;99.90
21035;DHT22;10676;50.848;3.272;2022-09-13T05:58:46;18.70;99.90
21035;DHT22;10676;50.848;3.272;2022-09-13T06:01:17;18.80;99.90
21035;DHT22;10676;50.848;3.272;2022-09-13T06:03:46;18.80;99.90
21035;DHT22;10676;50.848;3.272;2022-09-13T06:06:13;18.90;99.90
21035;DHT22;10676;50.848;3.272;2022-09-13T06:08:39;18.90;99.90
21035;DHT22;10676;50.848;3.272;2022-09-13T06:11:06;18.90;99.90
21035;DHT22;10676;50.848;3.272;2022-09-13T06:13:33;18.90;99.90
21035;DHT22;10676;50.848;3.272;2022-09-13T06:16:00;18.90;99.90
21035;DHT22;10676;50.848;3.272;2022-09-13T06:18:27;19.00;99.90
21035;DHT22;10676;50.848;3.272;2022-09-13T06:21:04;19.00;99.90
21035;DHT22;10676;50.848;3.272;2022-09-13T06:23:31;19.10;99.90
21035;DHT22;10676;50.848;3.272;2022-09-13T06:26:11;19.20;99.90
21035;DHT22;10676;50.848;3.272;2022-09-13T06:28:37;19.20;99.90
21035;DHT22;10676;50.848;3.272;2022-09-13T06:33:35;19.50;99.90
21035;DHT22;10676;50.848;3.272;2022-09-13T06:36:05;19.60;99.90
21035;DHT22;10676;50.848;3.272;2022-09-13T06:38:31;19.70;99.90
21035;DHT22;10676;50.848;3.272;2022-09-13T06:41:04;19.80;99.90
21035;DHT22;10676;50.848;3.272;2022-09-13T06:43:31;19.90;99.90
21035;DHT22;10676;50.848;3.272;2022-09-13T06:46:05;20.10;99.90
21035;DHT22;10676;50.848;3.272;2022-09-13T06:48:36;20.20;99.90
21035;DHT22;10676;50.848;3.272;2022-09-13T06:51:05;20.40;99.90
21035;DHT22;10676;50.848;3.272;2022-09-13T06:53:33;20.60;99.90
21035;DHT22;10676;50.848;3.272;2022-09-13T06:56:05;20.70;99.90
21035;DHT22;10676;50.848;3.272;2022-09-13T06:58:31;20.90;99.90
21035;DHT22;10676;50.848;3.272;2022-09-13T07:03:49;21.20;99.90
21035;DHT22;10676;50.848;3.272;2022-09-13T07:06:20;21.30;99.90
21035;DHT22;10676;50.848;3.272;2022-09-13T07:08:47;21.50;99.90
21035;DHT22;10676;50.848;3.272;2022-09-13T07:11:15;21.70;99.90
21035;DHT22;10676;50.848;3.272;2022-09-13T07:13:53;21.80;99.90
21035;DHT22;10676;50.848;3.272;2022-09-13T07:16:20;22.00;99.90
21035;DHT22;10676;50.848;3.272;2022-09-13T07:18:57;22.20;99.90
21035;DHT22;10676;50.848;3.272;2022-09-13T07:21:24;22.30;99.90
21035;DHT22;10676;50.848;3.272;2022-09-13T07:23:51;22.50;99.90
21035;DHT22;10676;50.848;3.272;2022-09-13T07:26:17;22.60;99.90
21035;DHT22;10676;50.848;3.272;2022-09-13T07:28:45;22.80;99.90
21035;DHT22;10676;50.848;3.272;2022-09-13T07:31:19;22.90;99.90
21035;DHT22;10676;50.848;3.272;2022-09-13T07:33:46;23.00;99.90
21035;DHT22;10676;50.848;3.272;2022-09-13T07:36:12;23.10;99.90
21035;DHT22;10676;50.848;3.272;2022-09-13T07:38:42;23.20;99.90
21035;DHT22;10676;50.848;3.272;2022-09-13T07:41:15;23.40;99.90
21035;DHT22;10676;50.848;3.272;2022-09-13T07:43:41;23.50;99.90
21035;DHT22;10676;50.848;3.272;2022-09-13T07:46:09;23.60;99.90
21035;DHT22;10676;50.848;3.272;2022-09-13T07:48:37;23.80;99.90
21035;DHT22;10676;50.848;3.272;2022-09-13T07:51:07;23.80;99.90
21035;DHT22;10676;50.848;3.272;2022-09-13T07:53:35;23.90;99.90
21035;DHT22;10676;50.848;3.272;2022-09-13T07:56:09;23.90;99.90
21035;DHT22;10676;50.848;3.272;2022-09-13T07:58:36;24.00;99.90
21035;DHT22;10676;50.848;3.272;2022-09-13T08:03:30;24.00;99.90
21035;DHT22;10676;50.848;3.272;2022-09-13T08:05:56;24.00;99.90
21035;DHT22;10676;50.848;3.272;2022-09-13T08:08:22;24.10;99.90
21035;DHT22;10676;50.848;3.272;2022-09-13T08:10:47;24.20;99.90
21035;DHT22;10676;50.848;3.272;2022-09-13T08:13:15;24.30;99.90
21035;DHT22;10676;50.848;3.272;2022-09-13T08:15:42;24.50;99.90
21035;DHT22;10676;50.848;3.272;2022-09-13T08:18:08;24.60;99.90
21035;DHT22;10676;50.848;3.272;2022-09-13T08:20:37;24.70;99.90
21035;DHT22;10676;50.848;3.272;2022-09-13T08:23:04;24.80;99.90
21035;DHT22;10676;50.848;3.272;2022-09-13T08:25:36;24.80;99.90
21035;DHT22;10676;50.848;3.272;2022-09-13T08:28:14;24.80;99.90
21035;DHT22;10676;50.848;3.272;2022-09-13T08:30:40;24.80;99.90
21035;DHT22;10676;50.848;3.272;2022-09-13T08:33:08;24.80;99.90
21035;DHT22;10676;50.848;3.272;2022-09-13T08:35:34;24.70;99.90
21035;DHT22;10676;50.848;3.272;2022-09-13T08:38:00;24.70;99.90
21035;DHT22;10676;50.848;3.272;2022-09-13T08:40:56;24.80;99.90
21035;DHT22;10676;50.848;3.272;2022-09-13T08:43:46;24.90;99.90
21035;DHT22;10676;50.848;3.272;2022-09-13T08:46:26;25.10;99.90
21035;DHT22;10676;50.848;3.272;2022-09-13T08:48:59;25.30;99.90
21035;DHT22;10676;50.848;3.272;2022-09-13T08:51:39;25.40;99.90
21035;DHT22;10676;50.848;3.272;2022-09-13T08:54:11;25.50;99.90
21035;DHT22;10676;50.848;3.272;2022-09-13T08:56:45;25.60;99.90
21035;DHT22;10676;50.848;3.272;2022-09-13T09:04:34;25.70;99.90
21035;DHT22;10676;50.848;3.272;2022-09-13T09:07:19;25.70;99.90
21035;DHT22;10676;50.848;3.272;2022-09-13T09:09:55;25.80;99.90
21035;DHT22;10676;50.848;3.272;2022-09-13T09:12:37;25.80;99.90
21035;DHT22;10676;50.848;3.272;2022-09-13T09:15:20;25.80;99.90
21035;DHT22;10676;50.848;3.272;2022-09-13T09:20:45;25.80;99.90
21035;DHT22;10676;50.848;3.272;2022-09-13T09:23:30;25.80;99.90
21035;DHT22;10676;50.848;3.272;2022-09-13T09:26:19;25.90;99.90
21035;DHT22;10676;50.848;3.272;2022-09-13T09:28:57;26.10;99.90
21035;DHT22;10676;50.848;3.272;2022-09-13T09:37:06;26.90;99.90
21035;DHT22;10676;50.848;3.272;2022-09-13T09:39:32;27.00;99.90
21035;DHT22;10676;50.848;3.272;2022-09-13T09:42:04;27.10;99.90
21035;DHT22;10676;50.848;3.272;2022-09-13T09:44:31;27.10;99.90
21035;DHT22;10676;50.848;3.272;2022-09-13T09:47:03;27.30;99.90
21035;DHT22;10676;50.848;3.272;2022-09-13T09:49:36;27.60;99.90
21035;DHT22;10676;50.848;3.272;2022-09-13T09:52:58;28.10;99.90
21035;DHT22;10676;50.848;3.272;2022-09-13T09:58:07;28.60;99.90
21035;DHT22;10676;50.848;3.272;2022-09-13T10:00:36;28.50;99.90
21035;DHT22;10676;50.848;3.272;2022-09-13T10:03:14;28.50;99.90
21035;DHT22;10676;50.848;3.272;2022-09-13T10:05:41;28.70;99.90
21035;DHT22;10676;50.848;3.272;2022-09-13T10:08:25;28.80;99.90
21035;DHT22;10676;50.848;3.272;2022-09-13T10:10:56;29.10;99.90
21035;DHT22;10676;50.848;3.272;2022-09-13T10:13:23;29.30;99.90
21035;DHT22;10676;50.848;3.272;2022-09-13T10:15:56;29.30;99.90
21035;DHT22;10676;50.848;3.272;2022-09-13T10:18:24;29.30;99.90
21035;DHT22;10676;50.848;3.272;2022-09-13T10:23:48;29.30;99.90
21035;DHT22;10676;50.848;3.272;2022-09-13T10:26:20;29.10;99.90
21035;DHT22;10676;50.848;3.272;2022-09-13T10:28:59;28.90;99.90
21035;DHT22;10676;50.848;3.272;2022-09-13T10:31:33;28.70;99.90
21035;DHT22;10676;50.848;3.272;2022-09-13T10:34:03;28.40;99.90
21035;DHT22;10676;50.848;3.272;2022-09-13T10:36:35;28.20;99.90
21035;DHT22;10676;50.848;3.272;2022-09-13T10:39:04;28.00;99.90
21035;DHT22;10676;50.848;3.272;2022-09-13T10:41:32;27.90;99.90
21035;DHT22;10676;50.848;3.272;2022-09-13T10:44:02;27.70;99.90
21035;DHT22;10676;50.848;3.272;2022-09-13T10:46:37;27.60;99.90
21035;DHT22;10676;50.848;3.272;2022-09-13T10:49:04;27.50;99.90
21035;DHT22;10676;50.848;3.272;2022-09-13T10:51:35;27.50;99.90
21035;DHT22;10676;50.848;3.272;2022-09-13T10:54:18;27.60;99.90
21035;DHT22;10676;50.848;3.272;2022-09-13T10:56:45;27.70;99.90
21035;DHT22;10676;50.848;3.272;2022-09-13T10:59:23;27.90;99.90
21035;DHT22;10676;50.848;3.272;2022-09-13T11:10:14;28.70;99.90
21035;DHT22;10676;50.848;3.272;2022-09-13T11:13:25;28.80;99.90
21035;DHT22;10676;50.848;3.272;2022-09-13T11:16:04;28.80;99.90
21035;DHT22;10676;50.848;3.272;2022-09-13T11:24:26;29.00;99.90
21035;DHT22;10676;50.848;3.272;2022-09-13T11:27:16;28.90;99.90
21035;DHT22;10676;50.848;3.272;2022-09-13T11:36:08;28.30;99.90
21035;DHT22;10676;50.848;3.272;2022-09-13T11:38:57;27.60;99.90
21035;DHT22;10676;50.848;3.272;2022-09-13T11:47:07;25.20;99.90
21035;DHT22;10676;50.848;3.272;2022-09-13T11:52:36;24.30;99.90
21035;DHT22;10676;50.848;3.272;2022-09-13T11:55:24;24.00;99.90
21035;DHT22;10676;50.848;3.272;2022-09-13T11:58:12;23.80;99.90
21035;DHT22;10676;50.848;3.272;2022-09-13T12:00:45;23.60;99.90
21035;DHT22;10676;50.848;3.272;2022-09-13T12:06:16;23.30;99.90
21035;DHT22;10676;50.848;3.272;2022-09-13T12:09:06;23.30;99.90
21035;DHT22;10676;50.848;3.272;2022-09-13T12:11:39;23.20;99.90
21035;DHT22;10676;50.848;3.272;2022-09-13T12:14:12;23.20;99.90
21035;DHT22;10676;50.848;3.272;2022-09-13T12:16:47;23.20;99.90
21035;DHT22;10676;50.848;3.272;2022-09-13T12:21:43;23.10;99.90
21035;DHT22;10676;50.848;3.272;2022-09-13T12:24:20;23.10;99.90
21035;DHT22;10676;50.848;3.272;2022-09-13T12:29:50;23.20;99.90
21035;DHT22;10676;50.848;3.272;2022-09-13T12:32:17;23.20;99.90
21035;DHT22;10676;50.848;3.272;2022-09-13T12:35:02;23.10;99.90
21035;DHT22;10676;50.848;3.272;2022-09-13T12:43:12;23.30;99.90
21035;DHT22;10676;50.848;3.272;2022-09-13T12:49:01;23.80;99.90
21035;DHT22;10676;50.848;3.272;2022-09-13T12:57:24;24.20;99.90
21035;DHT22;10676;50.848;3.272;2022-09-13T13:00:10;24.20;99.90
21035;DHT22;10676;50.848;3.272;2022-09-13T13:02:52;24.00;99.90
21035;DHT22;10676;50.848;3.272;2022-09-13T13:05:35;24.00;99.90
21035;DHT22;10676;50.848;3.272;2022-09-13T13:08:16;23.90;99.90
21035;DHT22;10676;50.848;3.272;2022-09-13T13:11:04;23.90;99.90
21035;DHT22;10676;50.848;3.272;2022-09-13T13:16:03;23.90;99.90
21035;DHT22;10676;50.848;3.272;2022-09-13T13:18:30;23.90;99.90
21035;DHT22;10676;50.848;3.272;2022-09-13T13:23:38;23.90;99.90
21035;DHT22;10676;50.848;3.272;2022-09-13T13:42:26;23.60;99.90
21035;DHT22;10676;50.848;3.272;2022-09-13T13:52:37;23.10;99.90
21035;DHT22;10676;50.848;3.272;2022-09-13T14:00:32;23.10;99.90
21035;DHT22;10676;50.848;3.272;2022-09-13T14:08:11;23.10;99.90
21035;DHT22;10676;50.848;3.272;2022-09-13T14:11:09;23.00;99.90
21035;DHT22;10676;50.848;3.272;2022-09-13T14:19:42;23.00;99.90
21035;DHT22;10676;50.848;3.272;2022-09-13T14:22:16;23.00;99.90
21035;DHT22;10676;50.848;3.272;2022-09-13T14:24:47;23.00;99.90
21035;DHT22;10676;50.848;3.272;2022-09-13T14:27:30;23.00;99.90
21035;DHT22;10676;50.848;3.272;2022-09-13T14:30:01;23.10;99.90
21035;DHT22;10676;50.848;3.272;2022-09-13T14:32:31;23.00;99.90
21035;DHT22;10676;50.848;3.272;2022-09-13T14:35:17;23.00;99.90
21035;DHT22;10676;50.848;3.272;2022-09-13T14:37:46;23.00;99.90
21035;DHT22;10676;50.848;3.272;2022-09-13T14:40:19;23.00;99.90
21035;DHT22;10676;50.848;3.272;2022-09-13T14:42:48;23.00;99.90
21035;DHT22;10676;50.848;3.272;2022-09-13T14:45:17;23.00;99.90
21035;DHT22;10676;50.848;3.272;2022-09-13T14:48:03;23.00;99.90
21035;DHT22;10676;50.848;3.272;2022-09-13T14:50:39;22.90;99.90
21035;DHT22;10676;50.848;3.272;2022-09-13T14:53:14;22.90;99.90
21035;DHT22;10676;50.848;3.272;2022-09-13T14:56:10;22.90;99.90
21035;DHT22;10676;50.848;3.272;2022-09-13T14:58:47;22.80;99.90
21035;DHT22;10676;50.848;3.272;2022-09-13T15:01:16;22.90;99.90
21035;DHT22;10676;50.848;3.272;2022-09-13T15:03:46;22.90;99.90
21035;DHT22;10676;50.848;3.272;2022-09-13T15:06:30;22.80;99.90
21035;DHT22;10676;50.848;3.272;2022-09-13T15:09:11;22.90;99.90
21035;DHT22;10676;50.848;3.272;2022-09-13T15:12:01;22.90;99.90
21035;DHT22;10676;50.848;3.272;2022-09-13T15:14:32;23.00;99.90
21035;DHT22;10676;50.848;3.272;2022-09-13T15:17:09;23.00;99.90
21035;DHT22;10676;50.848;3.272;2022-09-13T15:19:40;23.00;99.90
21035;DHT22;10676;50.848;3.272;2022-09-13T15:22:27;23.00;99.90
21035;DHT22;10676;50.848;3.272;2022-09-13T15:24:56;23.00;99.90
21035;DHT22;10676;50.848;3.272;2022-09-13T15:30:00;22.90;99.90
21035;DHT22;10676;50.848;3.272;2022-09-13T15:32:40;22.80;99.90
21035;DHT22;10676;50.848;3.272;2022-09-13T15:35:34;22.80;99.90
21035;DHT22;10676;50.848;3.272;2022-09-13T15:38:23;22.70;99.90
21035;DHT22;10676;50.848;3.272;2022-09-13T15:41:17;22.70;99.90
21035;DHT22;10676;50.848;3.272;2022-09-13T15:43:43;22.60;99.90
21035;DHT22;10676;50.848;3.272;2022-09-13T15:46:16;22.60;99.90
21035;DHT22;10676;50.848;3.272;2022-09-13T15:49:05;22.60;99.90
21035;DHT22;10676;50.848;3.272;2022-09-13T15:51:31;22.50;99.90
21035;DHT22;10676;50.848;3.272;2022-09-13T15:54:04;22.40;99.90
21035;DHT22;10676;50.848;3.272;2022-09-13T15:56:31;22.40;99.90
21035;DHT22;10676;50.848;3.272;2022-09-13T15:58:58;22.30;99.90
21035;DHT22;10676;50.848;3.272;2022-09-13T16:01:24;22.30;99.90
21035;DHT22;10676;50.848;3.272;2022-09-13T16:03:52;22.20;99.90
21035;DHT22;10676;50.848;3.272;2022-09-13T16:06:17;22.20;99.90
21035;DHT22;10676;50.848;3.272;2022-09-13T16:08:43;22.10;99.90
21035;DHT22;10676;50.848;3.272;2022-09-13T16:11:09;22.10;99.90
21035;DHT22;10676;50.848;3.272;2022-09-13T16:13:34;22.00;99.90
21035;DHT22;10676;50.848;3.272;2022-09-13T16:16:01;22.00;99.90
21035;DHT22;10676;50.848;3.272;2022-09-13T16:18:27;22.00;99.90
21035;DHT22;10676;50.848;3.272;2022-09-13T16:20:53;22.00;99.90
21035;DHT22;10676;50.848;3.272;2022-09-13T16:23:18;22.00;99.90
21035;DHT22;10676;50.848;3.272;2022-09-13T16:25:44;21.90;99.90
21035;DHT22;10676;50.848;3.272;2022-09-13T16:28:16;21.90;99.90
21035;DHT22;10676;50.848;3.272;2022-09-13T16:30:44;21.90;99.90
21035;DHT22;10676;50.848;3.272;2022-09-13T16:33:09;21.90;99.90
21035;DHT22;10676;50.848;3.272;2022-09-13T16:35:36;21.90;99.90
21035;DHT22;10676;50.848;3.272;2022-09-13T16:38:01;21.80;99.90
21035;DHT22;10676;50.848;3.272;2022-09-13T16:40:27;21.80;99.90
21035;DHT22;10676;50.848;3.272;2022-09-13T16:42:53;21.80;99.90
21035;DHT22;10676;50.848;3.272;2022-09-13T16:45:19;21.80;99.90
21035;DHT22;10676;50.848;3.272;2022-09-13T16:47:45;21.70;99.90
21035;DHT22;10676;50.848;3.272;2022-09-13T16:50:11;21.70;99.90
21035;DHT22;10676;50.848;3.272;2022-09-13T16:52:36;21.60;99.90
21035;DHT22;10676;50.848;3.272;2022-09-13T16:55:03;21.60;99.90
21035;DHT22;10676;50.848;3.272;2022-09-13T16:57:28;21.60;99.90
21035;DHT22;10676;50.848;3.272;2022-09-13T16:59:54;21.50;99.90
21035;DHT22;10676;50.848;3.272;2022-09-13T17:02:24;21.50;99.90
21035;DHT22;10676;50.848;3.272;2022-09-13T17:04:50;21.40;99.90
21035;DHT22;10676;50.848;3.272;2022-09-13T17:07:15;21.40;99.90
21035;DHT22;10676;50.848;3.272;2022-09-13T17:09:42;21.40;99.90
21035;DHT22;10676;50.848;3.272;2022-09-13T17:12:09;21.30;99.90
21035;DHT22;10676;50.848;3.272;2022-09-13T17:14:36;21.30;99.90
21035;DHT22;10676;50.848;3.272;2022-09-13T17:17:02;21.30;99.90
21035;DHT22;10676;50.848;3.272;2022-09-13T17:19:30;21.20;99.90
21035;DHT22;10676;50.848;3.272;2022-09-13T17:21:58;21.20;99.90
21035;DHT22;10676;50.848;3.272;2022-09-13T17:24:26;21.10;99.90
21035;DHT22;10676;50.848;3.272;2022-09-13T17:26:52;21.10;99.90
21035;DHT22;10676;50.848;3.272;2022-09-13T17:29:18;21.10;99.90
21035;DHT22;10676;50.848;3.272;2022-09-13T17:31:44;21.10;99.90
21035;DHT22;10676;50.848;3.272;2022-09-13T17:34:10;21.00;99.90
21035;DHT22;10676;50.848;3.272;2022-09-13T17:36:38;21.00;99.90
21035;DHT22;10676;50.848;3.272;2022-09-13T17:39:04;20.90;99.90
21035;DHT22;10676;50.848;3.272;2022-09-13T17:41:30;20.90;99.90
21035;DHT22;10676;50.848;3.272;2022-09-13T17:43:55;20.90;99.90
21035;DHT22;10676;50.848;3.272;2022-09-13T17:46:23;20.80;99.90
21035;DHT22;10676;50.848;3.272;2022-09-13T17:48:51;20.80;99.90
21035;DHT22;10676;50.848;3.272;2022-09-13T17:51:19;20.70;99.90
21035;DHT22;10676;50.848;3.272;2022-09-13T17:53:48;20.70;99.90
21035;DHT22;10676;50.848;3.272;2022-09-13T17:56:25;20.70;99.90
21035;DHT22;10676;50.848;3.272;2022-09-13T17:58:54;20.60;99.90
21035;DHT22;10676;50.848;3.272;2022-09-13T18:01:20;20.60;99.90
21035;DHT22;10676;50.848;3.272;2022-09-13T18:03:46;20.60;99.90
21035;DHT22;10676;50.848;3.272;2022-09-13T18:06:12;20.50;99.90
21035;DHT22;10676;50.848;3.272;2022-09-13T18:08:40;20.50;99.90
21035;DHT22;10676;50.848;3.272;2022-09-13T18:11:08;20.50;99.90
21035;DHT22;10676;50.848;3.272;2022-09-13T18:13:35;20.50;99.90
21035;DHT22;10676;50.848;3.272;2022-09-13T18:16:03;20.40;99.90
21035;DHT22;10676;50.848;3.272;2022-09-13T18:18:29;20.40;99.90
21035;DHT22;10676;50.848;3.272;2022-09-13T18:20:56;20.40;99.90
21035;DHT22;10676;50.848;3.272;2022-09-13T18:23:22;20.30;99.90
21035;DHT22;10676;50.848;3.272;2022-09-13T18:26:04;20.30;99.90
21035;DHT22;10676;50.848;3.272;2022-09-13T18:28:31;20.20;99.90
21035;DHT22;10676;50.848;3.272;2022-09-13T18:30:59;20.20;99.90
21035;DHT22;10676;50.848;3.272;2022-09-13T18:33:25;20.10;99.90
21035;DHT22;10676;50.848;3.272;2022-09-13T18:36:15;20.10;99.90
21035;DHT22;10676;50.848;3.272;2022-09-13T18:38:46;20.00;99.90
21035;DHT22;10676;50.848;3.272;2022-09-13T18:41:13;20.00;99.90
21035;DHT22;10676;50.848;3.272;2022-09-13T18:43:40;20.00;99.90
21035;DHT22;10676;50.848;3.272;2022-09-13T18:46:16;20.00;99.90
21035;DHT22;10676;50.848;3.272;2022-09-13T18:48:53;19.90;99.90
21035;DHT22;10676;50.848;3.272;2022-09-13T18:51:21;19.90;99.90
21035;DHT22;10676;50.848;3.272;2022-09-13T18:53:48;19.80;99.90
21035;DHT22;10676;50.848;3.272;2022-09-13T18:56:15;19.80;99.90